Time;durP1;ratioP1;P1;durP2;ratioP2;P2;SDS_P1;SDS_P2;PMS_P1;PMS_P2;Temp;Humidity;BMP_temperature;BMP_pressure;BME280_temperature;BME280_humidity;BME280_pressure;Samples;Min_cycle;Max_cycle;Signal;HPM_P1;HPM_P2
2023/07/04 00:01:05;;;;;;;2.33;0.65;;;22.20;1.00;;;;;;4949706;28;20102;-53
2023/07/04 00:03:33;;;;;;;1.23;0.40;;;22.20;1.00;;;;;;4946551;29;20459;-50
2023/07/04 00:06:01;;;;;;;1.85;0.47;;;22.20;1.00;;;;;;4940438;28;20048;-52
2023/07/04 00:08:29;;;;;;;1.92;0.40;;;22.20;1.00;;;;;;4940929;29;20118;-48
2023/07/04 00:10:57;;;;;;;1.85;0.35;;;22.20;1.00;;;;;;4950729;28;20393;-48
2023/07/04 00:13:25;;;;;;;1.42;0.38;;;22.20;1.00;;;;;;4944503;28;20047;-48
2023/07/04 00:15:53;;;;;;;1.23;0.38;;;22.20;1.00;;;;;;4941319;28;20511;-48
2023/07/04 00:18:22;;;;;;;1.33;0.40;;;22.20;1.00;;;;;;4939884;29;20199;-48
2023/07/04 00:20:54;;;;;;;2.22;0.52;;;22.20;1.00;;;;;;4948347;28;20036;-48
2023/07/04 00:23:30;;;;;;;2.05;0.30;;;22.20;1.00;;;;;;4944709;29;20047;-48
2023/07/04 00:25:57;;;;;;;4.00;0.32;;;22.10;1.00;;;;;;4945636;28;20575;-49
2023/07/04 00:28:25;;;;;;;4.97;0.45;;;22.10;1.00;;;;;;4956827;29;20131;-48
2023/07/04 00:30:54;;;;;;;3.22;0.30;;;22.10;1.00;;;;;;4951668;29;20035;-49
2023/07/04 00:33:23;;;;;;;1.27;0.45;;;22.10;1.00;;;;;;4948171;29;20047;-50
2023/07/04 00:36:00;;;;;;;1.17;0.50;;;22.10;1.00;;;;;;4938264;29;20039;-48
2023/07/04 00:38:28;;;;;;;2.53;0.30;;;22.10;1.00;;;;;;4938187;29;20047;-48
2023/07/04 00:40:54;;;;;;;4.47;0.50;;;22.10;1.00;;;;;;4953490;29;20055;-48
2023/07/04 00:43:22;;;;;;;3.05;0.52;;;22.10;1.00;;;;;;4945369;29;20139;-47
2023/07/04 00:45:55;;;;;;;2.55;0.40;;;22.10;1.00;;;;;;4946624;29;20515;-51
2023/07/04 00:48:23;;;;;;;1.42;0.50;;;22.10;1.00;;;;;;4946331;29;20106;-48
2023/07/04 00:50:53;;;;;;;0.70;0.40;;;22.10;1.00;;;;;;4938456;29;20127;-50
2023/07/04 00:53:20;;;;;;;2.15;0.77;;;22.10;1.00;;;;;;4939027;29;20527;-49
2023/07/04 00:55:48;;;;;;;2.63;0.60;;;22.10;1.00;;;;;;4954225;29;20043;-50
2023/07/04 00:58:16;;;;;;;2.65;0.47;;;22.10;1.00;;;;;;4942844;28;20501;-49
2023/07/04 01:00:44;;;;;;;0.68;0.30;;;22.10;1.00;;;;;;4942414;29;20051;-49
2023/07/04 01:03:14;;;;;;;2.70;0.52;;;22.10;1.00;;;;;;4949107;29;20043;-50
2023/07/04 01:06:10;;;;;;;1.17;0.50;;;22.10;1.00;;;;;;4938769;28;20067;-48
2023/07/04 01:08:42;;;;;;;3.83;0.82;;;22.00;1.00;;;;;;4954867;29;20047;-48
2023/07/04 01:11:21;;;;;;;2.97;0.70;;;22.00;1.00;;;;;;4951760;29;20047;-48
2023/07/04 01:13:50;;;;;;;2.08;0.45;;;22.00;1.00;;;;;;4951443;28;20051;-51
2023/07/04 01:16:19;;;;;;;3.15;0.70;;;22.00;1.00;;;;;;5039407;23;20066;-49
2023/07/04 01:18:51;;;;;;;2.42;0.98;;;22.00;1.00;;;;;;4928039;29;20111;-49
2023/07/04 01:21:21;;;;;;;3.08;0.50;;;22.00;1.00;;;;;;4929829;29;20123;-55
2023/07/04 01:23:54;;;;;;;1.20;0.32;;;22.00;1.00;;;;;;4935789;29;20078;-53
2023/07/04 01:26:56;;;;;;;2.72;0.68;;;22.00;1.00;;;;;;4927123;29;20135;-48
2023/07/04 01:29:24;;;;;;;1.77;0.60;;;22.00;1.00;;;;;;4899259;29;20094;-53
2023/07/04 01:31:51;;;;;;;1.75;0.40;;;22.00;1.00;;;;;;4933016;29;20043;-52
2023/07/04 01:34:20;;;;;;;0.73;0.32;;;22.00;1.00;;;;;;4934479;29;20055;-52
2023/07/04 01:36:49;;;;;;;2.10;0.60;;;22.00;1.00;;;;;;4927395;29;20056;-52
2023/07/04 01:39:16;;;;;;;2.65;0.65;;;22.00;1.00;;;;;;4944759;29;20056;-51
2023/07/04 01:41:49;;;;;;;2.25;0.57;;;22.00;1.00;;;;;;4931514;29;20054;-51
2023/07/04 01:44:16;;;;;;;3.08;0.70;;;22.00;1.00;;;;;;4930504;29;20501;-53
2023/07/04 01:46:44;;;;;;;2.50;0.47;;;22.00;1.00;;;;;;5150228;23;20460;-54
2023/07/04 01:49:11;;;;;;;2.60;0.80;;;22.00;1.00;;;;;;4936738;29;20091;-53
2023/07/04 01:51:40;;;;;;;1.58;0.50;;;21.90;1.00;;;;;;4920496;29;20420;-55
2023/07/04 01:54:09;;;;;;;1.58;0.60;;;21.90;1.00;;;;;;4915235;29;20229;-55
2023/07/04 01:56:38;;;;;;;3.00;1.15;;;21.90;1.00;;;;;;4912619;29;20044;-55
2023/07/04 01:59:07;;;;;;;1.10;0.50;;;21.90;1.00;;;;;;4908364;29;20052;-53
2023/07/04 02:01:37;;;;;;;2.58;1.23;;;21.90;1.00;;;;;;4915973;29;20412;-53
2023/07/04 02:04:04;;;;;;;2.58;0.40;;;21.90;1.00;;;;;;4914361;29;20068;-53
2023/07/04 02:06:31;;;;;;;1.63;0.47;;;21.90;1.00;;;;;;4916074;29;20076;-54
2023/07/04 02:08:58;;;;;;;1.88;0.60;;;21.90;1.00;;;;;;4912476;29;20072;-55
2023/07/04 02:11:25;;;;;;;2.40;0.50;;;21.90;1.00;;;;;;4916763;29;20134;-53
2023/07/04 02:13:51;;;;;;;1.42;0.80;;;21.90;1.00;;;;;;4909330;29;20047;-53
2023/07/04 02:16:18;;;;;;;1.88;0.70;;;21.90;1.00;;;;;;4911469;29;20076;-54
2023/07/04 02:18:45;;;;;;;1.88;0.47;;;21.90;1.00;;;;;;5036567;23;20061;-50
2023/07/04 02:21:12;;;;;;;2.28;0.40;;;21.90;1.00;;;;;;4891321;29;20139;-55
2023/07/04 02:23:39;;;;;;;1.92;0.60;;;21.90;1.00;;;;;;4912637;29;20152;-50
2023/07/04 02:26:07;;;;;;;1.88;0.40;;;21.90;1.00;;;;;;4914686;29;20133;-51
2023/07/04 02:28:36;;;;;;;1.30;0.60;;;21.90;1.00;;;;;;4916912;29;20074;-55
2023/07/04 02:31:03;;;;;;;1.08;0.45;;;21.90;1.00;;;;;;4884108;29;20106;-53
2023/07/04 02:33:30;;;;;;;1.05;0.40;;;21.90;1.00;;;;;;4908689;29;20072;-50
2023/07/04 02:35:57;;;;;;;0.95;0.47;;;21.90;1.00;;;;;;4913780;29;20491;-49
2023/07/04 02:38:25;;;;;;;2.15;0.40;;;21.90;1.00;;;;;;4915473;29;20541;-49
2023/07/04 02:40:52;;;;;;;1.58;0.43;;;21.80;1.00;;;;;;4905987;29;20049;-50
2023/07/04 02:43:20;;;;;;;2.10;1.23;;;21.80;1.00;;;;;;4887618;29;20493;-49
2023/07/04 02:45:47;;;;;;;3.60;1.40;;;21.80;1.00;;;;;;4899190;29;20075;-52
2023/07/04 02:48:14;;;;;;;2.33;0.28;;;21.80;1.00;;;;;;4910288;29;20037;-53
2023/07/04 02:50:42;;;;;;;1.27;0.40;;;21.80;1.00;;;;;;5024576;23;20123;-52
2023/07/04 02:53:10;;;;;;;1.95;1.08;;;21.80;1.00;;;;;;4904448;29;20052;-49
2023/07/04 02:55:37;;;;;;;1.65;0.40;;;21.80;1.00;;;;;;4914801;29;20056;-53
2023/07/04 02:58:06;;;;;;;1.73;0.68;;;21.80;1.00;;;;;;4935141;29;20057;-51
2023/07/04 03:00:35;;;;;;;3.20;1.45;;;21.80;1.00;;;;;;4910952;29;20422;-48
2023/07/04 03:03:02;;;;;;;1.05;0.55;;;21.80;1.00;;;;;;4906736;29;20492;-51
2023/07/04 03:05:31;;;;;;;4.35;0.73;;;21.70;1.00;;;;;;4916523;29;20048;-53
2023/07/04 03:07:58;;;;;;;2.58;0.63;;;21.70;1.00;;;;;;4917971;29;20524;-53
2023/07/04 03:10:26;;;;;;;2.13;0.50;;;21.70;1.00;;;;;;4915873;29;20035;-51
2023/07/04 03:12:54;;;;;;;2.28;0.50;;;21.80;1.00;;;;;;4902512;29;20080;-49
2023/07/04 03:15:24;;;;;;;1.17;0.28;;;21.70;1.00;;;;;;4915747;29;20054;-50
2023/07/04 03:17:53;;;;;;;1.80;0.50;;;21.70;1.00;;;;;;4915365;29;20048;-51
2023/07/04 03:20:20;;;;;;;1.15;0.65;;;21.70;1.00;;;;;;4913700;29;20047;-51
2023/07/04 03:22:51;;;;;;;1.70;0.77;;;21.70;1.00;;;;;;4918008;29;20044;-55
2023/07/04 03:25:19;;;;;;;1.90;0.40;;;21.70;1.00;;;;;;4913108;29;20055;-48
2023/07/04 03:27:49;;;;;;;1.65;0.43;;;21.70;1.00;;;;;;4932890;29;20135;-49
2023/07/04 03:30:22;;;;;;;1.88;0.60;;;21.70;1.00;;;;;;4913523;29;20052;-48
2023/07/04 03:32:53;;;;;;;4.43;0.85;;;21.70;1.00;;;;;;4901163;29;20055;-48
2023/07/04 03:35:20;;;;;;;4.45;0.73;;;21.70;1.00;;;;;;4915327;29;20508;-49
2023/07/04 03:37:47;;;;;;;1.25;0.50;;;21.70;1.00;;;;;;4914100;29;20075;-52
2023/07/04 03:40:14;;;;;;;1.55;0.85;;;21.70;1.00;;;;;;4933526;29;20047;-48
2023/07/04 03:42:41;;;;;;;3.22;0.38;;;21.70;1.00;;;;;;4917624;29;20500;-52
2023/07/04 03:45:09;;;;;;;2.00;0.40;;;21.70;1.00;;;;;;4909688;29;20452;-49
2023/07/04 03:47:36;;;;;;;2.55;0.40;;;21.70;1.00;;;;;;4914870;29;20075;-50
2023/07/04 03:50:06;;;;;;;1.85;0.30;;;21.70;1.00;;;;;;5029608;23;20444;-52
2023/07/04 03:52:33;;;;;;;1.20;0.47;;;21.60;1.00;;;;;;4956057;28;20043;-51
2023/07/04 03:55:01;;;;;;;6.68;0.60;;;21.70;1.00;;;;;;4961483;28;20050;-52
2023/07/04 03:57:28;;;;;;;3.20;0.50;;;21.60;1.00;;;;;;4942783;28;20491;-50
2023/07/04 03:59:55;;;;;;;4.90;0.47;;;21.70;1.00;;;;;;4955474;28;20039;-50
2023/07/04 04:02:23;;;;;;;1.40;0.47;;;21.70;1.00;;;;;;4950875;28;20099;-51
2023/07/04 04:04:49;;;;;;;2.03;0.52;;;21.60;1.00;;;;;;4967144;28;20051;-52
2023/07/04 04:07:17;;;;;;;2.10;0.57;;;21.60;1.00;;;;;;4957282;28;20051;-51
2023/07/04 04:09:43;;;;;;;4.05;0.60;;;21.60;1.00;;;;;;4947275;28;20050;-51
2023/07/04 04:12:10;;;;;;;2.95;0.45;;;21.60;1.00;;;;;;4952669;28;20047;-52
2023/07/04 04:14:37;;;;;;;2.85;0.55;;;21.60;1.00;;;;;;4967056;28;20133;-51
2023/07/04 04:17:05;;;;;;;4.40;0.60;;;21.60;1.00;;;;;;4958642;28;20102;-48
2023/07/04 04:19:33;;;;;;;2.20;0.50;;;21.60;1.00;;;;;;4965091;28;20047;-50
2023/07/04 04:22:00;;;;;;;8.45;1.23;;;21.60;1.00;;;;;;5262127;23;20056;-51
2023/07/04 04:24:26;;;;;;;5.68;0.60;;;21.60;1.00;;;;;;4937841;29;20126;-52
2023/07/04 04:26:53;;;;;;;5.45;1.00;;;21.60;1.00;;;;;;4937321;29;20048;-51
2023/07/04 04:29:22;;;;;;;3.10;0.60;;;21.60;1.00;;;;;;4937882;29;20044;-51
2023/07/04 04:31:49;;;;;;;5.47;1.42;;;21.50;1.00;;;;;;4924486;29;20063;-50
2023/07/04 04:34:21;;;;;;;3.85;1.08;;;21.50;1.00;;;;;;4919060;29;20054;-54
2023/07/04 04:36:48;;;;;;;3.75;0.70;;;21.50;1.00;;;;;;4919154;29;20071;-53
2023/07/04 04:39:15;;;;;;;3.75;1.05;;;21.50;1.00;;;;;;4918835;29;20071;-52
2023/07/04 04:41:42;;;;;;;1.75;0.75;;;21.50;1.00;;;;;;4918918;29;20048;-54
2023/07/04 04:44:09;;;;;;;4.43;0.60;;;21.50;1.00;;;;;;4918870;29;20044;-51
2023/07/04 04:46:36;;;;;;;3.08;1.00;;;21.50;1.00;;;;;;4918991;29;20052;-51
2023/07/04 04:49:03;;;;;;;1.90;0.43;;;21.50;1.00;;;;;;4918555;29;20131;-51
2023/07/04 04:51:31;;;;;;;5.32;1.00;;;21.50;1.00;;;;;;4918596;29;20040;-56
2023/07/04 04:53:58;;;;;;;3.13;0.65;;;21.50;1.00;;;;;;5116640;23;20437;-51
2023/07/04 04:56:25;;;;;;;1.17;0.50;;;21.50;1.00;;;;;;4918487;29;20122;-52
2023/07/04 04:58:52;;;;;;;5.55;1.05;;;21.50;1.00;;;;;;4918386;29;20541;-54
2023/07/04 05:01:22;;;;;;;2.58;0.82;;;21.50;1.00;;;;;;4910478;29;20051;-51
2023/07/04 05:03:52;;;;;;;3.88;0.57;;;21.50;1.00;;;;;;4918037;29;20055;-52
2023/07/04 05:06:21;;;;;;;2.05;0.50;;;21.50;1.00;;;;;;4918262;29;20055;-51
2023/07/04 05:08:48;;;;;;;2.72;0.63;;;21.50;1.00;;;;;;4918003;29;20067;-51
2023/07/04 05:11:15;;;;;;;3.60;0.90;;;21.50;1.00;;;;;;4917188;29;20048;-51
2023/07/04 05:13:45;;;;;;;4.10;0.82;;;21.50;1.00;;;;;;4918385;29;20036;-49
2023/07/04 05:16:17;;;;;;;1.63;0.30;;;21.50;1.00;;;;;;4917593;29;20040;-49
2023/07/04 05:18:44;;;;;;;2.42;0.80;;;21.50;1.00;;;;;;4918007;29;20095;-50
2023/07/04 05:21:18;;;;;;;5.47;0.95;;;21.50;1.00;;;;;;4917668;29;20493;-52
2023/07/04 05:23:45;;;;;;;;;;;21.50;1.00;;;;;;4918520;29;20044;-50
2023/07/04 05:26:19;;;;;;;3.40;0.90;;;21.50;1.00;;;;;;4974367;23;19933;-52
2023/07/04 05:28:46;;;;;;;2.47;0.47;;;21.40;1.00;;;;;;4917812;29;20036;-50
2023/07/04 05:31:16;;;;;;;4.05;0.70;;;21.40;1.00;;;;;;4917662;29;20044;-50
2023/07/04 05:33:44;;;;;;;3.10;0.80;;;21.40;1.00;;;;;;4917916;29;20028;-49
2023/07/04 05:36:18;;;;;;;2.53;0.70;;;21.40;1.00;;;;;;4917382;29;20046;-48
2023/07/04 05:38:56;;;;;;;2.78;0.63;;;21.40;1.00;;;;;;4917857;29;20052;-52
2023/07/04 05:41:25;;;;;;;2.53;0.60;;;21.40;1.00;;;;;;4917634;29;20500;-49
2023/07/04 05:43:54;;;;;;;2.88;0.55;;;21.50;1.00;;;;;;4917669;29;20052;-52
2023/07/04 05:46:21;;;;;;;3.15;1.65;;;21.40;1.00;;;;;;4917436;29;20068;-54
2023/07/04 05:48:48;;;;;;;3.03;0.60;;;21.40;1.00;;;;;;4917341;29;20040;-52
2023/07/04 05:51:17;;;;;;;1.85;0.50;;;21.40;1.00;;;;;;4917362;29;20460;-50
2023/07/04 05:53:47;;;;;;;3.97;1.38;;;21.40;1.00;;;;;;4917402;29;20044;-50
2023/07/04 05:56:27;;;;;;;5.03;0.93;;;21.40;1.00;;;;;;4917312;29;20032;-48
2023/07/04 05:58:56;;;;;;;0.98;0.50;;;21.40;1.00;;;;;;4914620;29;20055;-53
2023/07/04 06:01:32;;;;;;;1.73;0.70;;;21.40;1.00;;;;;;4898806;29;20048;-53
2023/07/04 06:04:00;;;;;;;2.83;0.60;;;21.40;1.00;;;;;;4914467;29;20044;-51
2023/07/04 06:06:30;;;;;;;3.05;0.95;;;21.40;1.00;;;;;;4917536;29;20058;-48
2023/07/04 06:08:59;;;;;;;1.75;0.68;;;21.40;1.00;;;;;;4917241;29;20046;-53
2023/07/04 06:11:31;;;;;;;2.53;0.60;;;21.40;1.00;;;;;;4917159;29;20060;-48
2023/07/04 06:13:58;;;;;;;2.67;0.57;;;21.40;1.00;;;;;;4917194;29;20092;-54
2023/07/04 06:16:25;;;;;;;3.88;1.27;;;21.40;1.00;;;;;;4917424;29;20158;-51
2023/07/04 06:18:52;;;;;;;2.17;0.60;;;21.40;1.00;;;;;;4917527;29;20177;-51
2023/07/04 06:21:21;;;;;;;2.35;0.90;;;21.40;1.00;;;;;;4916932;29;20488;-48
2023/07/04 06:24:08;;;;;;;3.38;0.88;;;21.40;1.00;;;;;;4915953;29;20044;-53
2023/07/04 06:26:35;;;;;;;1.60;0.65;;;21.40;1.00;;;;;;4917019;29;20134;-49
2023/07/04 06:29:02;;;;;;;2.15;0.50;;;21.40;1.00;;;;;;5316107;23;20060;-50
2023/07/04 06:31:29;;;;;;;3.20;0.88;;;21.40;1.00;;;;;;4935039;29;20461;-50
2023/07/04 06:33:56;;;;;;;6.35;2.25;;;21.40;1.00;;;;;;4935484;29;20043;-50
2023/07/04 06:36:23;;;;;;;2.63;0.68;;;21.40;1.00;;;;;;4935421;29;20044;-53
2023/07/04 06:38:51;;;;;;;2.58;0.73;;;21.40;1.00;;;;;;4935463;29;20123;-51
2023/07/04 06:41:18;;;;;;;5.72;1.15;;;21.40;1.00;;;;;;4935297;29;20395;-49
2023/07/04 06:43:47;;;;;;;2.97;0.73;;;21.40;1.00;;;;;;4935214;29;20120;-50
2023/07/04 06:46:17;;;;;;;4.43;0.93;;;21.40;1.00;;;;;;4935267;29;20082;-49
2023/07/04 06:48:47;;;;;;;6.53;1.23;;;21.40;1.00;;;;;;4929592;29;20036;-50
2023/07/04 06:51:18;;;;;;;2.88;0.80;;;21.40;1.00;;;;;;4933630;29;20035;-50
2023/07/04 06:53:45;;;;;;;2.40;0.55;;;21.40;1.00;;;;;;4935250;29;20036;-50
2023/07/04 06:56:21;;;;;;;3.03;1.08;;;21.40;1.00;;;;;;4934776;29;20043;-50
2023/07/04 06:58:50;;;;;;;6.57;1.05;;;21.40;1.00;;;;;;4935294;29;20130;-51
2023/07/04 07:01:18;;;;;;;3.40;1.05;;;21.40;1.00;;;;;;5505509;23;20426;-49
2023/07/04 07:03:45;;;;;;;5.03;0.98;;;21.40;1.00;;;;;;4899711;29;20417;-49
2023/07/04 07:06:12;;;;;;;6.78;1.38;;;21.40;1.00;;;;;;4896931;29;20062;-49
2023/07/04 07:08:40;;;;;;;2.97;1.05;;;21.40;1.00;;;;;;4910104;29;20411;-49
2023/07/04 07:11:11;;;;;;;3.50;1.02;;;21.40;1.00;;;;;;4915618;29;20119;-52
2023/07/04 07:13:42;;;;;;;4.80;1.20;;;21.40;1.00;;;;;;4916093;29;20040;-49
2023/07/04 07:16:14;;;;;;;4.05;0.55;;;21.40;1.00;;;;;;4915753;29;20044;-54
2023/07/04 07:18:42;;;;;;;4.88;0.82;;;21.40;1.00;;;;;;4915940;29;20441;-53
2023/07/04 07:21:11;;;;;;;3.00;0.80;;;21.40;1.00;;;;;;4915566;29;20048;-54
2023/07/04 07:23:39;;;;;;;4.05;1.05;;;21.40;1.00;;;;;;4916067;29;20559;-55
2023/07/04 07:26:09;;;;;;;4.10;1.38;;;21.40;1.00;;;;;;4915657;29;20072;-54
2023/07/04 07:28:39;;;;;;;2.15;0.90;;;21.40;1.00;;;;;;4915748;29;20127;-56
2023/07/04 07:31:08;;;;;;;3.80;1.00;;;21.40;1.00;;;;;;4915366;29;20044;-54
2023/07/04 07:33:37;;;;;;;4.28;0.70;;;21.40;1.00;;;;;;4997468;23;20058;-55
2023/07/04 07:36:11;;;;;;;3.33;0.85;;;21.40;1.00;;;;;;4934119;29;20514;-52
2023/07/04 07:38:38;;;;;;;3.17;0.77;;;21.40;1.00;;;;;;4934728;29;20050;-55
2023/07/04 07:41:05;;;;;;;4.45;1.10;;;21.40;1.00;;;;;;4934313;29;20036;-51
2023/07/04 07:43:32;;;;;;;3.45;1.23;;;21.40;1.00;;;;;;4934485;29;20593;-52
2023/07/04 07:46:01;;;;;;;1.70;0.80;;;21.40;1.00;;;;;;4934695;29;20064;-54
2023/07/04 07:48:28;;;;;;;4.32;1.33;;;21.40;1.00;;;;;;4917916;29;20395;-52
2023/07/04 07:50:55;;;;;;;5.28;0.93;;;21.40;1.00;;;;;;4934224;29;20095;-51
2023/07/04 07:53:22;;;;;;;4.60;1.10;;;21.40;1.00;;;;;;4934483;29;20401;-53
2023/07/04 07:55:48;;;;;;;5.65;1.27;;;21.40;1.00;;;;;;4934301;29;20551;-53
2023/07/04 07:58:15;;;;;;;2.35;0.85;;;21.40;1.00;;;;;;4934364;29;20408;-50
2023/07/04 08:00:42;;;;;;;2.55;0.55;;;21.40;1.00;;;;;;4934061;29;20127;-49
2023/07/04 08:05:52;;;;;;;2.28;0.73;;;21.40;1.00;;;;;;4915523;29;20066;-50
2023/07/04 08:08:19;;;;;;;5.63;1.20;;;21.40;1.00;;;;;;4914204;29;20510;-53
2023/07/04 08:10:46;;;;;;;4.03;0.95;;;21.40;1.00;;;;;;4915326;29;20123;-49
2023/07/04 08:13:12;;;;;;;3.65;1.23;;;21.40;1.00;;;;;;4915679;29;20120;-49
2023/07/04 08:15:40;;;;;;;2.60;0.88;;;21.50;1.00;;;;;;4915447;29;20032;-52
2023/07/04 08:18:09;;;;;;;3.65;1.45;;;21.50;1.00;;;;;;4915781;29;20068;-49
2023/07/04 08:20:37;;;;;;;3.97;1.15;;;21.50;1.00;;;;;;4915574;29;20511;-53
2023/07/04 08:23:04;;;;;;;7.18;1.27;;;21.50;1.00;;;;;;4915508;29;20044;-52
2023/07/04 08:25:31;;;;;;;6.10;1.65;;;21.50;1.00;;;;;;4907538;29;20556;-52
2023/07/04 08:27:57;;;;;;;5.93;1.65;;;21.50;1.00;;;;;;4915805;29;20040;-50
2023/07/04 08:30:24;;;;;;;3.95;1.00;;;21.50;1.00;;;;;;4915163;29;20036;-53
2023/07/04 08:32:53;;;;;;;3.60;0.82;;;21.50;1.00;;;;;;4915567;29;20036;-52
2023/07/04 08:35:20;;;;;;;2.53;0.88;;;21.50;1.00;;;;;;4915517;29;20131;-48
2023/07/04 08:37:47;;;;;;;2.47;0.73;;;21.60;1.00;;;;;;4915692;29;20485;-50
2023/07/04 08:40:16;;;;;;;4.97;1.30;;;21.60;1.00;;;;;;4915135;29;20040;-50
2023/07/04 08:42:44;;;;;;;4.30;0.80;;;21.60;1.00;;;;;;4915368;29;20159;-48
2023/07/04 08:45:20;;;;;;;4.10;1.10;;;21.60;1.00;;;;;;4915279;29;20049;-48
2023/07/04 08:47:48;;;;;;;5.05;1.08;;;21.60;1.00;;;;;;4918170;29;20051;-50
2023/07/04 08:50:30;;;;;;;6.22;1.25;;;21.60;1.00;;;;;;4918548;29;20040;-48
2023/07/04 08:53:08;;;;;;;5.37;1.37;;;21.60;1.00;;;;;;4919004;29;20039;-50
2023/07/04 08:55:43;;;;;;;4.45;0.95;;;21.60;1.00;;;;;;4918566;29;20044;-51
2023/07/04 08:58:14;;;;;;;7.55;1.88;;;21.70;1.00;;;;;;4918600;29;20046;-51
2023/07/04 09:00:43;;;;;;;4.63;1.20;;;21.70;1.00;;;;;;4917182;29;20052;-49
2023/07/04 09:03:38;;;;;;;3.70;0.90;;;21.70;1.00;;;;;;4918547;29;20131;-49
2023/07/04 09:06:40;;;;;;;3.72;0.93;;;21.70;1.00;;;;;;4989254;23;20364;-52
2023/07/04 09:09:20;;;;;;;5.68;0.70;;;21.70;1.00;;;;;;4956436;28;20047;-50
2023/07/04 09:11:49;;;;;;;5.93;1.15;;;21.70;1.00;;;;;;4956241;29;20045;-49
2023/07/04 09:14:33;;;;;;;5.45;1.05;;;21.70;1.00;;;;;;4956035;28;20047;-49
2023/07/04 09:17:04;;;;;;;3.35;0.60;;;21.80;1.00;;;;;;4956201;28;20058;-50
2023/07/04 09:19:38;;;;;;;4.03;0.90;;;21.80;1.00;;;;;;4956250;28;20053;-50
2023/07/04 09:22:06;;;;;;;6.60;1.30;;;21.80;1.00;;;;;;4955821;29;20136;-50
2023/07/04 09:24:33;;;;;;;7.15;1.92;;;21.80;1.00;;;;;;4955806;28;20042;-50
2023/07/04 09:27:02;;;;;;;2.10;0.85;;;21.90;1.00;;;;;;4956091;29;20122;-49
2023/07/04 09:29:30;;;;;;;5.05;1.48;;;21.90;1.00;;;;;;4970460;28;20047;-50
2023/07/04 09:32:00;;;;;;;3.92;1.27;;;21.90;1.00;;;;;;4955699;28;20126;-49
2023/07/04 09:34:32;;;;;;;5.80;0.77;;;21.90;1.00;;;;;;4955743;28;20077;-49
2023/07/04 09:37:08;;;;;;;2.88;1.20;;;21.90;1.00;;;;;;4956379;28;20122;-50
2023/07/04 09:39:56;;;;;;;2.78;0.98;;;21.90;1.00;;;;;;4955811;28;20039;-50
2023/07/04 09:42:30;;;;;;;4.60;0.65;;;22.00;1.00;;;;;;4955556;29;20043;-53
2023/07/04 09:45:09;;;;;;;5.05;0.60;;;22.00;1.00;;;;;;4955633;29;20039;-49
2023/07/04 09:47:40;;;;;;;6.80;1.00;;;22.00;1.00;;;;;;4955572;28;20479;-51
2023/07/04 09:50:23;;;;;;;2.42;0.93;;;22.00;1.00;;;;;;4955554;28;20035;-50
2023/07/04 09:53:16;;;;;;;2.93;1.00;;;22.00;1.00;;;;;;4955622;28;20122;-51
2023/07/04 09:55:57;;;;;;;2.63;0.82;;;22.00;1.00;;;;;;4955256;28;20447;-48
2023/07/04 09:58:25;;;;;;;3.47;0.88;;;22.00;1.00;;;;;;4955320;28;20047;-49
2023/07/04 10:01:08;;;;;;;3.92;1.60;;;22.10;1.00;;;;;;4955343;28;20085;-48
2023/07/04 10:03:38;;;;;;;6.35;1.23;;;22.10;1.00;;;;;;4955583;28;20039;-51
2023/07/04 10:06:06;;;;;;;5.63;1.25;;;22.10;1.00;;;;;;5066734;23;20018;-50
2023/07/04 10:08:50;;;;;;;5.22;1.17;;;22.10;1.00;;;;;;4936370;29;20126;-49
2023/07/04 10:11:35;;;;;;;3.47;1.13;;;22.10;1.00;;;;;;4935828;29;20091;-51
2023/07/04 10:14:07;;;;;;;6.57;1.40;;;22.10;1.00;;;;;;4935775;29;20032;-49
2023/07/04 10:16:35;;;;;;;4.05;1.05;;;22.10;1.00;;;;;;4935908;29;20112;-54
2023/07/04 10:19:13;;;;;;;5.85;1.27;;;22.10;1.00;;;;;;4936052;29;20043;-50
2023/07/04 10:21:51;;;;;;;3.95;1.10;;;22.20;1.00;;;;;;4935753;29;20099;-51
2023/07/04 10:24:24;;;;;;;3.97;1.67;;;22.10;1.00;;;;;;4935435;29;20044;-51
2023/07/04 10:26:59;;;;;;;1.77;0.70;;;22.20;1.00;;;;;;4935999;29;20032;-54
2023/07/04 10:29:35;;;;;;;4.57;1.30;;;22.20;1.00;;;;;;4935889;29;20449;-55
2023/07/04 10:32:06;;;;;;;4.07;1.38;;;22.20;1.00;;;;;;4935602;29;20126;-52
2023/07/04 10:34:34;;;;;;;4.85;1.77;;;22.20;1.00;;;;;;4935421;29;20099;-53
2023/07/04 10:37:03;;;;;;;1.90;0.70;;;22.20;1.00;;;;;;4935874;29;20055;-50
2023/07/04 10:39:33;;;;;;;6.30;1.13;;;22.20;1.00;;;;;;4934107;29;20103;-54
2023/07/04 10:42:26;;;;;;;3.10;1.35;;;22.20;1.00;;;;;;4935306;29;20043;-47
2023/07/04 10:44:55;;;;;;;;;;;22.20;1.00;;;;;;4935925;29;20075;-52
2023/07/04 10:47:31;;;;;;;5.35;0.77;;;22.20;1.00;;;;;;4935369;29;20435;-48
2023/07/04 10:50:03;;;;;;;3.05;1.23;;;22.20;1.00;;;;;;4935365;29;20392;-49
2023/07/04 10:52:33;;;;;;;4.22;0.98;;;22.20;1.00;;;;;;4935001;29;20035;-50
2023/07/04 10:55:01;;;;;;;3.88;1.08;;;22.20;1.00;;;;;;4935100;29;20044;-47
2023/07/04 10:57:38;;;;;;;3.05;1.08;;;22.20;1.00;;;;;;4935508;29;20467;-48
2023/07/04 11:00:45;;;;;;;7.65;1.02;;;22.20;1.00;;;;;;4935300;29;20039;-48
2023/07/04 11:03:42;;;;;;;5.70;2.08;;;22.20;1.00;;;;;;4935511;29;20480;-48
2023/07/04 11:06:14;;;;;;;6.63;1.20;;;22.30;1.00;;;;;;4935074;29;20102;-49
2023/07/04 11:08:42;;;;;;;5.40;2.05;;;22.30;1.00;;;;;;5063495;23;20074;-48
2023/07/04 11:11:12;;;;;;;4.80;0.95;;;22.30;1.00;;;;;;4953739;28;20045;-50
2023/07/04 11:13:48;;;;;;;2.70;0.98;;;22.30;1.00;;;;;;4954360;28;20049;-49
2023/07/04 11:16:17;;;;;;;6.93;1.00;;;22.30;1.00;;;;;;4954030;28;20043;-52
2023/07/04 11:19:03;;;;;;;7.50;1.52;;;22.30;1.00;;;;;;4954323;28;20036;-50
2023/07/04 11:21:31;;;;;;;6.72;1.63;;;22.30;1.00;;;;;;4953711;28;20051;-48
2023/07/04 11:24:18;;;;;;;2.83;0.90;;;22.30;1.00;;;;;;4953792;28;20525;-51
2023/07/04 11:26:59;;;;;;;3.72;0.98;;;22.30;1.00;;;;;;4953947;28;20035;-50
2023/07/04 11:29:44;;;;;;;4.43;0.98;;;22.30;1.00;;;;;;4953907;29;20460;-50
2023/07/04 11:32:16;;;;;;;2.20;0.70;;;22.30;1.00;;;;;;4953797;28;20036;-52
2023/07/04 11:34:53;;;;;;;3.20;0.68;;;22.30;1.00;;;;;;4953590;29;20035;-52
2023/07/04 11:40:26;;;;;;;3.50;0.65;;;22.30;1.00;;;;;;5221462;23;20047;-53
2023/07/04 11:43:04;;;;;;;7.57;1.13;;;22.30;1.00;;;;;;4934355;29;20654;-49
2023/07/04 11:45:32;;;;;;;8.20;1.05;;;22.30;1.00;;;;;;4934576;29;20455;-51
2023/07/04 11:48:06;;;;;;;5.78;0.98;;;22.30;1.00;;;;;;4934968;29;20139;-49
2023/07/04 11:50:42;;;;;;;3.58;1.10;;;22.40;1.00;;;;;;4916752;29;20040;-50
2023/07/04 11:53:21;;;;;;;5.38;1.55;;;22.40;1.00;;;;;;4915732;29;20036;-49
2023/07/04 11:56:23;;;;;;;3.97;0.80;;;22.40;1.00;;;;;;4927435;29;20087;-49
2023/07/04 11:59:11;;;;;;;2.90;0.70;;;22.30;1.00;;;;;;4934371;29;20032;-50
2023/07/04 12:02:10;;;;;;;3.65;1.17;;;22.40;1.00;;;;;;4934218;29;20118;-55
2023/07/04 12:04:38;;;;;;;6.30;1.65;;;22.40;1.00;;;;;;4934070;29;20054;-50
2023/07/04 12:07:34;;;;;;;3.78;0.90;;;22.40;1.00;;;;;;4934320;29;20035;-52
2023/07/04 12:13:02;;;;;;;4.60;1.08;;;22.40;1.00;;;;;;4839027;29;20098;-48
2023/07/04 12:15:32;;;;;;;4.40;0.95;;;22.40;1.00;;;;;;4840621;29;20049;-49
2023/07/04 12:18:01;;;;;;;7.25;1.10;;;22.40;1.00;;;;;;4840874;29;20121;-48
2023/07/04 12:20:30;;;;;;;3.70;1.00;;;22.40;1.00;;;;;;4833645;29;20061;-50
2023/07/04 12:23:00;;;;;;;4.85;1.08;;;22.40;1.00;;;;;;4844403;29;20250;-49
2023/07/04 12:25:34;;;;;;;4.28;1.55;;;22.40;1.00;;;;;;4844140;29;20050;-52
2023/07/04 12:28:03;;;;;;;4.32;0.90;;;22.40;1.00;;;;;;4844533;29;20571;-52
2023/07/04 12:30:31;;;;;;;4.93;1.45;;;22.40;1.00;;;;;;4844192;29;20098;-51
2023/07/04 12:33:01;;;;;;;4.50;1.15;;;22.40;1.00;;;;;;4844162;29;20502;-49
2023/07/04 12:35:33;;;;;;;3.70;1.52;;;22.40;1.00;;;;;;4843947;29;20054;-50
2023/07/04 12:38:03;;;;;;;7.28;1.38;;;22.40;1.00;;;;;;4844277;29;20048;-51
2023/07/04 12:40:31;;;;;;;3.97;1.63;;;22.40;1.00;;;;;;4844072;29;20046;-48
2023/07/04 12:46:18;;;;;;;2.30;0.93;;;22.40;1.00;;;;;;4917134;29;20135;-53
2023/07/04 12:48:49;;;;;;;6.07;1.33;;;22.40;1.00;;;;;;4911456;29;20397;-50
2023/07/04 12:51:25;;;;;;;4.45;0.98;;;22.40;1.00;;;;;;4908953;29;20044;-50
2023/07/04 12:53:53;;;;;;;4.68;1.58;;;22.40;1.00;;;;;;4899402;29;20469;-49
2023/07/04 12:56:20;;;;;;;7.20;1.33;;;22.40;1.00;;;;;;4899561;29;20113;-51
2023/07/04 12:58:48;;;;;;;4.35;0.90;;;22.40;1.00;;;;;;4899646;29;20500;-51
2023/07/04 13:01:29;;;;;;;6.82;1.02;;;22.40;1.00;;;;;;4899485;29;20473;-49
2023/07/04 13:03:58;;;;;;;4.65;1.00;;;22.40;1.00;;;;;;4899334;29;20040;-47
2023/07/04 13:06:28;;;;;;;6.10;1.92;;;22.40;1.00;;;;;;4899231;29;20548;-49
2023/07/04 13:08:56;;;;;;;4.38;1.02;;;22.40;1.00;;;;;;4899419;29;20047;-47
2023/07/04 13:11:25;;;;;;;5.60;1.77;;;22.40;1.00;;;;;;4899103;29;20045;-47
2023/07/04 13:14:07;;;;;;;2.42;0.85;;;22.50;1.00;;;;;;4898995;29;20068;-48
2023/07/04 13:16:35;;;;;;;2.97;0.80;;;22.50;1.00;;;;;;5127397;23;20047;-49
2023/07/04 13:19:05;;;;;;;3.70;1.60;;;22.50;1.00;;;;;;4956418;29;20510;-50
2023/07/04 13:21:37;;;;;;;4.93;1.10;;;22.50;1.00;;;;;;4956515;29;20039;-49
2023/07/04 13:24:09;;;;;;;2.70;1.13;;;22.50;1.00;;;;;;4955784;29;20047;-48
2023/07/04 13:26:41;;;;;;;3.60;0.88;;;22.50;1.00;;;;;;4955936;29;20470;-50
2023/07/04 13:29:26;;;;;;;3.13;0.70;;;22.50;1.00;;;;;;4956057;29;20377;-49